Terminal Aerodrome Forecast
Issued by NWS Wilmington, OH

Current Version | Previous Version | Text Only | Print | Product List | Glossary Off
Versions: 1 2 3 4 5 6 7 8 9 10 11 12 13 14 15 16 17 18 19 20 21 22 23 24

200
FTUS41 KILN 210905 AAA
TAFCVG
TAF AMD
KCVG 210905Z 2109/2212 00000KT P6SM SKC
      TEMPO 2109/2113 3SM BR FEW005
     FM211300 VRB03KT P6SM SCT250
     FM211500 16004KT P6SM SCT040 BKN250
     FM212300 08004KT P6SM SCT250=

USA.gov is the U.S. government's official web portal to all federal, state and local government web resources and services.